Time;durP1;ratioP1;P1;durP2;ratioP2;P2;SDS_P1;SDS_P2;PMS_P1;PMS_P2;Temp;Humidity;BMP_temperature;BMP_pressure;BME280_temperature;BME280_humidity;BME280_pressure;Samples;Min_cycle;Max_cycle;Signal;HPM_P1;HPM_P2
2022/07/10 00:00:39;;;;;;;4.95;1.00;;;;;;;14.29;59.19;101330.91;10382325;28;20132;-77
2022/07/10 00:05:42;;;;;;;4.45;0.90;;;;;;;14.34;58.73;101326.00;10390516;28;20461;-78
2022/07/10 00:10:46;;;;;;;6.30;1.35;;;;;;;14.21;59.26;101325.31;10410322;28;20080;-77
2022/07/10 00:15:49;;;;;;;5.43;1.30;;;;;;;14.03;59.38;101323.09;10398433;28;20045;-78
2022/07/10 00:20:52;;;;;;;4.72;1.15;;;;;;;13.84;60.20;101317.47;10407051;28;20776;-78
2022/07/10 00:25:56;;;;;;;4.10;0.95;;;;;;;13.99;59.41;101307.25;10402587;28;20052;-77
2022/07/10 00:30:59;;;;;;;5.05;1.05;;;;;;;13.77;60.09;101305.41;10407992;28;20088;-78
2022/07/10 00:36:02;;;;;;;6.50;1.00;;;;;;;14.20;58.57;101313.63;10391108;28;20048;-77
2022/07/10 00:41:06;;;;;;;3.40;0.82;;;;;;;13.73;60.30;101310.22;10379477;28;20222;-77
2022/07/10 00:46:09;;;;;;;2.72;0.60;;;;;;;13.73;60.20;101307.53;10378780;28;20144;-77
2022/07/10 00:51:12;;;;;;;4.13;1.10;;;;;;;13.43;61.38;101308.09;10400221;28;20063;-78
2022/07/10 00:56:17;;;;;;;3.35;0.95;;;;;;;13.26;62.03;101310.25;10393085;28;20057;-77
2022/07/10 01:01:22;;;;;;;8.15;1.63;;;;;;;13.15;63.07;101318.31;10403504;28;20048;-77
2022/07/10 01:06:25;;;;;;;7.65;1.65;;;;;;;13.23;63.19;101297.00;10395872;28;20042;-77
2022/07/10 01:11:29;;;;;;;;;;;;;;;12.39;65.51;101289.94;10394576;28;20053;-77
2022/07/10 01:16:32;;;;;;;6.25;1.75;;;;;;;13.40;62.84;101281.38;10397615;28;19925;-77
2022/07/10 01:21:38;;;;;;;6.72;1.08;;;;;;;13.43;62.63;101289.22;10400104;28;20055;-77
2022/07/10 01:26:42;;;;;;;8.05;2.20;;;;;;;12.98;64.08;101298.06;10400928;28;20497;-78
2022/07/10 01:31:46;;;;;;;3.58;0.95;;;;;;;12.98;64.29;101284.56;10398835;28;20794;-78
2022/07/10 01:36:50;;;;;;;5.22;1.05;;;;;;;13.21;63.84;101287.31;10385532;28;20084;-78
2022/07/10 01:41:53;;;;;;;6.55;1.13;;;;;;;12.99;64.56;101285.41;10395725;28;20056;-77
2022/07/10 01:46:55;;;;;;;;;;;;;;;13.10;64.08;101285.44;10399828;28;20070;-77
2022/07/10 01:52:00;;;;;;;8.45;1.33;;;;;;;13.14;64.06;101273.44;10392183;28;20018;-78
2022/07/10 01:57:03;;;;;;;5.93;1.40;;;;;;;13.01;64.52;101260.06;10386674;28;20096;-77
2022/07/10 02:02:06;;;;;;;4.68;1.60;;;;;;;12.85;65.09;101258.66;10380776;28;20242;-77
2022/07/10 02:07:11;;;;;;;4.88;1.15;;;;;;;12.89;64.39;101261.00;10379388;28;20090;-78
2022/07/10 02:12:15;;;;;;;14.38;1.70;;;;;;;13.16;64.09;101249.88;10381091;28;20430;-78
2022/07/10 02:17:18;;;;;;;3.33;1.90;;;;;;;12.92;64.42;101249.13;10388478;28;20061;-78
2022/07/10 02:22:22;;;;;;;9.85;1.40;;;;;;;13.58;62.97;101246.66;10382879;28;20052;-77
2022/07/10 02:27:25;;;;;;;3.83;1.38;;;;;;;13.04;63.69;101246.31;10403627;28;20045;-78
2022/07/10 02:32:27;;;;;;;;;;;;;;;13.46;63.05;101248.50;10397377;28;20051;-77
2022/07/10 02:37:31;;;;;;;8.00;1.17;;;;;;;13.04;64.37;101232.84;10407452;28;19955;-77
2022/07/10 02:42:34;;;;;;;8.48;0.98;;;;;;;12.82;65.08;101239.03;10437263;28;20080;-77
2022/07/10 02:47:37;;;;;;;7.82;2.13;;;;;;;12.92;64.64;101228.41;10406359;28;20068;-78
2022/07/10 02:52:41;;;;;;;;;;;;;;;13.00;64.75;101225.09;10400490;28;20550;-78
2022/07/10 02:57:43;;;;;;;6.85;1.95;;;;;;;12.83;65.13;101226.41;10415605;28;20070;-78
2022/07/10 03:02:46;;;;;;;6.97;1.27;;;;;;;13.23;64.22;101226.84;10409352;28;21332;-78
2022/07/10 03:07:51;;;;;;;6.90;1.77;;;;;;;12.75;65.78;101231.53;10398732;28;20165;-78
2022/07/10 03:12:53;;;;;;;8.80;1.58;;;;;;;12.91;65.81;101231.22;10405959;28;20841;-78
2022/07/10 03:17:56;;;;;;;7.35;1.35;;;;;;;12.70;66.31;101223.81;10404673;28;20048;-77
2022/07/10 03:23:01;;;;;;;7.88;1.60;;;;;;;12.77;65.92;101206.19;10402655;28;20051;-78
2022/07/10 03:28:04;;;;;;;7.82;1.30;;;;;;;13.02;65.52;101223.16;10406048;28;20049;-78
2022/07/10 03:33:06;;;;;;;11.07;1.20;;;;;;;12.88;65.63;101224.22;10401012;28;20049;-78
2022/07/10 03:38:11;;;;;;;6.95;1.15;;;;;;;12.55;67.14;101223.13;10413947;28;20087;-77
2022/07/10 03:43:14;;;;;;;5.97;1.02;;;;;;;12.36;67.47;101223.66;10407717;28;20156;-78
2022/07/10 03:48:17;;;;;;;8.32;1.20;;;;;;;12.85;66.04;101235.25;10406528;28;20046;-77
2022/07/10 03:53:21;;;;;;;5.85;1.00;;;;;;;12.80;66.94;101232.91;10407371;28;20186;-78
2022/07/10 03:58:24;;;;;;;8.23;1.45;;;;;;;12.41;69.26;101230.56;10410548;28;20057;-78
2022/07/10 04:03:27;;;;;;;;;;;;;;;12.26;69.70;101237.91;10402426;28;20048;-77
2022/07/10 04:08:31;;;;;;;5.15;1.30;;;;;;;12.29;68.65;101229.66;10420316;28;19925;-78
2022/07/10 04:13:34;;;;;;;9.43;1.40;;;;;;;12.58;67.89;101235.53;10410580;28;20054;-77
2022/07/10 04:18:36;;;;;;;5.75;1.38;;;;;;;12.76;67.14;101244.06;10410936;28;20041;-77
2022/07/10 04:23:41;;;;;;;7.25;1.50;;;;;;;12.54;69.52;101234.06;10403962;28;20532;-77
2022/07/10 04:28:44;;;;;;;5.97;1.33;;;;;;;12.46;69.44;101226.53;10397570;28;20095;-77
2022/07/10 04:33:47;;;;;;;8.55;1.50;;;;;;;12.64;68.19;101231.50;10395909;28;20127;-78
2022/07/10 04:38:51;;;;;;;;;;;;;;;12.75;66.93;101236.94;10414376;28;20053;-78
2022/07/10 04:43:53;;;;;;;7.00;1.13;;;;;;;12.87;67.39;101237.84;10407019;28;19944;-77
2022/07/10 04:48:56;;;;;;;5.35;1.27;;;;;;;12.91;67.09;101236.59;10417623;28;20091;-77
2022/07/10 04:54:00;;;;;;;7.82;1.50;;;;;;;13.22;65.66;101241.34;10411208;28;20511;-78
2022/07/10 04:59:03;;;;;;;3.45;1.00;;;;;;;13.17;65.69;101234.59;10400687;28;20096;-78
2022/07/10 05:04:06;;;;;;;;;;;;;;;12.58;67.25;101241.75;10398537;28;20126;-78
2022/07/10 05:09:10;;;;;;;6.43;1.42;;;;;;;12.56;68.00;101245.56;10408006;28;20060;-78
2022/07/10 05:14:13;;;;;;;4.43;1.30;;;;;;;12.69;66.83;101237.41;10394888;28;20060;-78
2022/07/10 05:19:16;;;;;;;8.52;1.70;;;;;;;13.24;65.58;101242.06;10379913;28;20064;-77
2022/07/10 05:24:20;;;;;;;5.60;1.38;;;;;;;12.99;66.28;101247.66;10383558;28;20195;-78
2022/07/10 05:29:23;;;;;;;9.75;1.55;;;;;;;13.42;65.01;101245.19;10402383;28;20095;-78
2022/07/10 05:34:26;;;;;;;5.60;1.45;;;;;;;13.38;65.73;101246.38;10410281;28;20068;-77
2022/07/10 05:39:30;;;;;;;9.77;1.30;;;;;;;13.84;63.98;101242.69;10390752;28;20049;-77
2022/07/10 05:44:33;;;;;;;8.95;1.05;;;;;;;13.12;66.28;101240.34;10395033;28;20139;-77
2022/07/10 05:49:36;;;;;;;12.43;1.90;;;;;;;12.82;67.45;101252.53;10409534;28;20057;-77
2022/07/10 05:54:40;;;;;;;12.38;1.58;;;;;;;13.27;66.38;101244.53;10397224;28;20118;-77
2022/07/10 05:59:44;;;;;;;9.20;1.65;;;;;;;13.05;66.79;101245.38;10395965;28;20106;-78
2022/07/10 06:04:47;;;;;;;4.70;1.20;;;;;;;13.34;64.81;101261.09;10386763;28;20050;-78
2022/07/10 06:09:51;;;;;;;6.35;1.33;;;;;;;14.05;63.39;101260.84;10403909;28;20497;-77
2022/07/10 06:14:54;;;;;;;5.13;1.13;;;;;;;13.96;63.78;101262.47;10388299;28;20049;-77
2022/07/10 06:19:56;;;;;;;8.95;1.40;;;;;;;13.94;64.66;101257.19;10387011;28;20104;-78
2022/07/10 06:25:03;;;;;;;5.60;1.13;;;;;;;14.19;62.86;101252.47;10406442;28;21313;-77
2022/07/10 06:30:06;;;;;;;5.05;1.52;;;;;;;14.28;62.97;101262.50;10394462;28;20053;-77
2022/07/10 06:35:09;;;;;;;6.40;1.30;;;;;;;14.09;63.25;101255.06;10391422;28;20049;-77
2022/07/10 06:40:15;;;;;;;8.10;1.30;;;;;;;14.20;62.26;101248.75;10386524;28;20053;-77
2022/07/10 06:45:18;;;;;;;10.10;1.63;;;;;;;14.61;61.98;101247.19;10398340;28;20052;-77
2022/07/10 06:50:21;;;;;;;8.63;1.20;;;;;;;15.27;59.95;101258.59;10407306;28;20241;-76
2022/07/10 06:55:26;;;;;;;8.02;2.08;;;;;;;14.95;59.99;101255.16;10402445;28;20402;-78
2022/07/10 07:00:29;;;;;;;4.63;1.08;;;;;;;15.66;57.92;101255.25;10401782;28;20080;-77
2022/07/10 07:05:31;;;;;;;6.13;1.27;;;;;;;15.45;58.57;101247.19;10395654;28;20077;-77
2022/07/10 07:10:36;;;;;;;10.13;1.25;;;;;;;15.76;57.91;101250.72;10401862;28;20095;-77
2022/07/10 07:15:42;;;;;;;8.00;1.52;;;;;;;15.95;57.29;101243.66;10400348;28;20076;-78
2022/07/10 07:26:07;;;;;;;5.80;1.25;;;;;;;16.01;56.17;101243.09;10402501;28;20083;-77
2022/07/10 07:31:10;;;;;;;4.03;1.33;;;;;;;15.59;57.08;101245.97;10399328;28;20653;-77
2022/07/10 07:36:18;;;;;;;6.20;1.73;;;;;;;16.19;56.33;101251.44;10402722;28;20419;-77
2022/07/10 07:41:22;;;;;;;8.18;2.13;;;;;;;15.72;56.65;101243.03;10392979;28;20048;-77
2022/07/10 07:46:25;;;;;;;8.32;1.45;;;;;;;15.98;58.51;101252.38;10375255;28;20186;-77
2022/07/10 07:51:28;;;;;;;7.38;1.98;;;;;;;15.28;58.99;101262.19;10395935;28;20202;-77
2022/07/10 07:56:32;;;;;;;7.25;1.42;;;;;;;15.66;58.86;101263.38;10396436;28;20072;-77
2022/07/10 08:01:35;;;;;;;7.60;1.42;;;;;;;16.58;56.61;101245.06;10394087;28;20187;-77
2022/07/10 08:06:38;;;;;;;3.60;1.20;;;;;;;17.24;53.16;101238.00;10402785;28;20132;-77
2022/07/10 08:11:42;;;;;;;9.43;1.33;;;;;;;17.42;52.80;101238.94;10395694;28;20128;-77
2022/07/10 08:16:45;;;;;;;8.43;1.98;;;;;;;18.47;50.16;101237.66;10392543;28;20072;-78
2022/07/10 08:21:48;;;;;;;6.65;1.30;;;;;;;18.06;50.71;101247.25;10403635;28;20045;-78
2022/07/10 08:26:52;;;;;;;5.95;1.17;;;;;;;17.81;50.36;101229.78;10396610;28;20107;-77
2022/07/10 08:31:55;;;;;;;6.63;1.30;;;;;;;17.46;51.21;101232.19;10377527;28;20126;-78
2022/07/10 08:36:58;;;;;;;5.53;1.63;;;;;;;17.89;50.57;101232.59;10381287;28;20091;-77
2022/07/10 08:42:05;;;;;;;5.45;1.25;;;;;;;18.04;49.36;101233.78;10395410;28;20080;-77
2022/07/10 08:47:08;;;;;;;6.30;1.75;;;;;;;18.14;49.76;101237.31;10392408;28;20134;-77
2022/07/10 08:52:22;;;;;;;6.30;1.10;;;;;;;19.28;47.35;101220.28;10397462;28;20800;-78
2022/07/10 08:57:27;;;;;;;4.90;1.10;;;;;;;20.43;44.25;101215.25;10403517;28;20100;-77
2022/07/10 09:02:29;;;;;;;5.85;1.38;;;;;;;19.40;45.16;101231.75;10397849;28;20045;-77
2022/07/10 09:07:36;;;;;;;4.70;0.80;;;;;;;18.29;46.81;101225.91;10395841;28;21670;-77
2022/07/10 09:12:54;;;;;;;5.45;0.80;;;;;;;18.70;46.81;101209.94;10375352;28;20195;-77
2022/07/10 09:17:59;;;;;;;7.07;1.23;;;;;;;19.62;45.17;101201.22;10398398;28;20056;-77
2022/07/10 09:23:16;;;;;;;5.03;0.90;;;;;;;19.55;43.55;101205.59;10390916;28;20050;-77
2022/07/10 09:28:22;;;;;;;3.90;0.70;;;;;;;19.61;43.17;101195.94;10376815;28;20049;-77
2022/07/10 09:33:26;;;;;;;5.20;1.10;;;;;;;20.39;42.26;101201.13;10379060;28;20061;-77
2022/07/10 09:38:49;;;;;;;5.80;0.90;;;;;;;20.89;41.36;101201.97;10384057;28;20190;-77
2022/07/10 09:43:56;;;;;;;5.60;0.80;;;;;;;20.45;41.66;101196.84;10398921;28;20059;-77
2022/07/10 09:49:03;;;;;;;6.75;1.00;;;;;;;18.71;44.97;101211.69;10408793;28;21180;-77
2022/07/10 09:54:08;;;;;;;2.70;1.00;;;;;;;16.93;49.22;101216.47;10389618;28;20473;-77
2022/07/10 09:59:14;;;;;;;2.92;1.00;;;;;;;17.75;47.86;101212.22;10387883;28;20147;-76
2022/07/10 10:04:19;;;;;;;7.78;1.20;;;;;;;16.75;51.01;101210.91;10392211;28;20072;-77
2022/07/10 10:09:25;;;;;;;4.30;1.30;;;;;;;16.51;51.75;101214.09;10382598;28;20492;-77
2022/07/10 10:14:30;;;;;;;5.18;0.80;;;;;;;16.95;51.68;101209.06;10391097;28;20049;-77
2022/07/10 10:24:56;;;;;;;5.07;1.07;;;;;;;18.48;49.09;101217.59;10387121;28;20052;-77
2022/07/10 10:30:00;;;;;;;3.15;0.70;;;;;;;19.08;48.17;101207.88;10400470;28;20094;-78
2022/07/10 10:35:06;;;;;;;2.08;0.77;;;;;;;19.43;47.85;101210.47;10388242;28;20091;-78
2022/07/10 10:40:10;;;;;;;8.27;1.88;;;;;;;19.04;48.23;101212.81;10392509;28;20534;-78
2022/07/10 10:45:27;;;;;;;4.57;1.02;;;;;;;18.29;50.33;101229.50;10395914;28;20056;-78
2022/07/10 10:50:41;;;;;;;8.27;1.17;;;;;;;17.90;51.00;101212.53;10396708;28;20037;-77
2022/07/10 10:56:25;;;;;;;7.05;1.27;;;;;;;17.57;52.68;101219.44;10388692;28;20134;-78
2022/07/10 11:01:32;;;;;;;8.52;1.38;;;;;;;16.15;57.26;101221.91;10400821;28;20507;-78
2022/07/10 11:06:39;;;;;;;6.75;1.10;;;;;;;16.85;55.58;101213.63;10398545;28;20060;-78
2022/07/10 11:11:42;;;;;;;1.73;0.80;;;;;;;17.97;52.59;101199.22;10380153;28;20172;-77
2022/07/10 11:16:49;;;;;;;3.50;0.85;;;;;;;17.26;53.85;101211.56;10386776;28;20142;-77
2022/07/10 11:22:07;;;;;;;4.68;0.85;;;;;;;16.70;56.22;101220.50;10430830;28;20048;-77
2022/07/10 11:27:35;;;;;;;3.92;0.70;;;;;;;16.53;59.60;101231.06;10410079;28;20525;-78
2022/07/10 11:32:39;;;;;;;1.95;0.80;;;;;;;15.50;65.71;101228.69;10405042;28;20529;-78
2022/07/10 11:37:50;;;;;;;3.10;0.77;;;;;;;15.58;66.57;101230.72;10384587;28;20064;-78
2022/07/10 11:42:54;;;;;;;2.75;1.05;;;;;;;15.39;66.74;101226.09;10395618;28;20094;-78
2022/07/10 11:47:59;;;;;;;1.45;0.70;;;;;;;16.28;64.42;101218.06;10411219;28;20080;-78
2022/07/10 11:53:01;;;;;;;1.17;0.65;;;;;;;16.69;62.98;101207.94;10415004;28;20053;-78
2022/07/10 11:58:15;;;;;;;1.38;0.57;;;;;;;16.53;63.63;101220.22;10398874;28;20079;-78
2022/07/10 12:03:21;;;;;;;1.60;0.40;;;;;;;16.83;62.96;101212.91;10416889;28;20403;-78
2022/07/10 12:08:42;;;;;;;1.63;0.32;;;;;;;16.98;62.18;101218.75;10408928;28;20043;-78
2022/07/10 12:13:45;;;;;;;1.90;0.40;;;;;;;17.90;59.20;101212.53;10401934;28;20053;-78
2022/07/10 12:18:50;;;;;;;2.80;0.40;;;;;;;17.14;60.15;101213.59;10401247;28;20087;-78
2022/07/10 12:23:54;;;;;;;1.65;0.40;;;;;;;16.53;61.55;101220.22;10402037;28;20053;-78
2022/07/10 12:28:58;;;;;;;1.58;0.50;;;;;;;17.10;59.64;101222.16;10398544;28;20056;-78
2022/07/10 12:34:04;;;;;;;2.45;0.40;;;;;;;17.60;58.39;101220.00;10404952;28;20068;-78
2022/07/10 12:39:07;;;;;;;1.08;0.38;;;;;;;17.73;59.29;101221.50;10401043;28;20045;-78
2022/07/10 12:44:10;;;;;;;1.17;0.45;;;;;;;17.64;58.15;101215.97;10386943;28;20072;-78
2022/07/10 12:49:14;;;;;;;1.42;0.38;;;;;;;17.98;58.19;101212.66;10399000;28;20090;-78
2022/07/10 12:54:34;;;;;;;1.65;0.40;;;;;;;18.39;56.75;101214.97;10396423;28;20048;-78
2022/07/10 12:59:38;;;;;;;0.85;0.35;;;;;;;18.84;55.80;101214.00;10394436;28;20045;-78
2022/07/10 13:04:53;;;;;;;1.65;0.22;;;;;;;19.17;54.30;101213.25;10410366;28;20042;-77
2022/07/10 13:09:55;;;;;;;1.23;0.30;;;;;;;19.38;53.91;101203.81;10401236;28;20049;-79
2022/07/10 13:15:06;;;;;;;1.65;0.35;;;;;;;18.61;55.24;101202.75;10392516;28;20049;-78
2022/07/10 13:20:11;;;;;;;2.17;0.30;;;;;;;18.83;59.34;101215.03;10388401;28;20079;-77
2022/07/10 13:25:14;;;;;;;3.53;0.47;;;;;;;18.06;64.64;101220.06;10405728;28;20133;-78
2022/07/10 13:30:17;;;;;;;1.73;0.50;;;;;;;17.27;71.90;101220.56;10405476;28;21764;-78
2022/07/10 13:35:21;;;;;;;3.45;0.98;;;;;;;18.29;74.98;101212.31;10392219;28;20778;-79
2022/07/10 13:40:24;;;;;;;1.38;0.70;;;;;;;18.52;68.26;101208.13;10405454;28;20053;-79
2022/07/10 13:45:32;;;;;;;2.90;0.85;;;;;;;18.48;68.96;101201.25;10416350;28;20099;-78
2022/07/10 13:50:38;;;;;;;3.10;0.82;;;;;;;18.26;68.27;101204.47;10421909;28;20041;-78
2022/07/10 13:55:41;;;;;;;0.98;0.45;;;;;;;18.16;66.80;101199.09;10402126;28;20044;-78
2022/07/10 14:00:44;;;;;;;2.55;0.57;;;;;;;16.65;67.93;101193.81;10411537;28;20065;-80
2022/07/10 14:05:48;;;;;;;1.77;0.30;;;;;;;18.09;63.11;101192.56;10403951;28;20049;-79
2022/07/10 14:10:52;;;;;;;1.02;0.43;;;;;;;18.24;63.17;101193.75;10409410;28;20120;-80
2022/07/10 14:15:55;;;;;;;2.10;0.50;;;;;;;17.89;62.87;101192.66;10407832;28;20060;-80
2022/07/10 14:21:08;;;;;;;4.13;0.38;;;;;;;17.98;60.53;101193.63;10398286;28;20041;-80
2022/07/10 14:26:11;;;;;;;2.17;0.47;;;;;;;18.49;64.70;101189.38;10421058;28;20051;-79
2022/07/10 14:31:14;;;;;;;2.30;0.40;;;;;;;19.22;59.97;101188.22;10407511;28;20049;-79
2022/07/10 14:36:18;;;;;;;1.95;0.30;;;;;;;19.12;58.22;101192.94;10398242;28;20056;-77
2022/07/10 14:41:21;;;;;;;0.45;0.30;;;;;;;19.33;58.41;101190.66;10383803;28;20046;-79
2022/07/10 14:46:24;;;;;;;1.55;0.70;;;;;;;19.83;57.29;101184.44;10394931;28;20056;-79
2022/07/10 14:51:29;;;;;;;4.53;0.52;;;;;;;19.02;57.48;101183.00;10398352;28;20652;-80
2022/07/10 14:56:32;;;;;;;2.33;0.40;;;;;;;18.72;58.56;101184.28;10413508;28;20133;-79
2022/07/10 15:01:34;;;;;;;2.00;0.32;;;;;;;18.48;58.93;101165.91;10420891;28;20053;-80
2022/07/10 15:06:39;;;;;;;0.65;0.20;;;;;;;17.50;61.54;101177.56;10408089;28;20095;-77
2022/07/10 15:11:41;;;;;;;1.30;0.20;;;;;;;16.72;68.86;101178.66;10408702;28;20068;-79
2022/07/10 15:16:44;;;;;;;1.13;0.32;;;;;;;15.87;72.16;101184.75;10401332;28;21274;-80
2022/07/10 15:21:49;;;;;;;1.42;0.40;;;;;;;16.00;73.06;101174.50;10411888;28;20052;-80
2022/07/10 15:26:52;;;;;;;1.00;0.40;;;;;;;15.54;73.38;101175.13;10412566;28;20090;-79
2022/07/10 15:31:54;;;;;;;0.57;0.20;;;;;;;16.49;71.27;101164.56;10393212;28;21633;-77
2022/07/10 15:37:02;;;;;;;2.83;0.38;;;;;;;16.41;71.13;101169.00;10407140;28;20110;-79
2022/07/10 15:42:06;;;;;;;1.05;0.50;;;;;;;16.53;70.19;101163.25;10407181;28;20053;-79
2022/07/10 15:47:09;;;;;;;0.93;0.40;;;;;;;17.20;70.35;101161.44;10418183;28;20048;-79
2022/07/10 15:52:13;;;;;;;0.60;0.50;;;;;;;17.40;68.53;101154.03;10415593;28;20122;-79
2022/07/10 15:57:16;;;;;;;0.65;0.20;;;;;;;17.97;65.13;101145.72;10411030;28;20050;-79
2022/07/10 16:02:19;;;;;;;0.28;0.20;;;;;;;18.16;64.91;101150.16;10398362;28;20058;-79
2022/07/10 16:07:23;;;;;;;1.45;0.20;;;;;;;18.22;62.69;101154.97;10417538;28;20064;-78
2022/07/10 16:12:26;;;;;;;1.70;0.20;;;;;;;17.84;63.91;101158.81;10417052;28;20049;-79
2022/07/10 16:17:29;;;;;;;2.35;0.63;;;;;;;17.64;66.68;101158.06;10403814;28;20668;-79
2022/07/10 16:22:33;;;;;;;1.23;0.40;;;;;;;17.72;67.26;101158.19;10409782;28;20674;-79
2022/07/10 16:27:36;;;;;;;4.13;0.57;;;;;;;18.10;66.72;101156.19;10410385;28;20045;-78
2022/07/10 16:32:38;;;;;;;4.35;0.75;;;;;;;;;;10414054;28;20056;-80
2022/07/10 16:37:42;;;;;;;;;;;;;;;17.92;64.62;101138.00;10401527;28;20114;-80
2022/07/10 16:42:47;;;;;;;0.20;0.20;;;;;;;17.52;64.51;101141.09;10412812;28;21118;-79
2022/07/10 16:47:50;;;;;;;0.90;0.32;;;;;;;17.31;65.74;101149.53;10422102;28;20540;-80
2022/07/10 16:52:54;;;;;;;2.47;0.40;;;;;;;17.01;67.18;101143.31;10409873;28;21166;-80
2022/07/10 16:57:57;;;;;;;0.22;0.20;;;;;;;17.00;65.87;101147.03;10404937;28;20045;-79
2022/07/10 17:03:02;;;;;;;0.30;0.30;;;;;;;16.31;68.05;101150.88;10416445;28;20048;-79
2022/07/10 17:08:09;;;;;;;0.35;0.30;;;;;;;16.39;68.62;101154.72;10406549;28;20049;-79
2022/07/10 17:13:12;;;;;;;0.68;0.20;;;;;;;16.68;67.86;101149.28;10401583;28;21162;-78
2022/07/10 17:18:15;;;;;;;0.17;0.17;;;;;;;16.64;67.61;101139.69;10406100;28;20103;-78
2022/07/10 17:23:20;;;;;;;0.75;0.20;;;;;;;16.72;67.32;101145.25;10402228;28;20660;-78
2022/07/10 17:28:22;;;;;;;4.72;0.60;;;;;;;16.33;68.64;101134.47;10415860;28;20209;-78
2022/07/10 17:33:25;;;;;;;0.68;0.50;;;;;;;16.34;68.89;101139.72;10406599;28;20064;-77
2022/07/10 17:38:30;;;;;;;1.60;0.55;;;;;;;16.47;68.64;101146.72;10402707;28;20109;-77
2022/07/10 17:43:33;;;;;;;1.45;0.40;;;;;;;16.32;69.75;101136.31;10406370;28;20569;-77
2022/07/10 17:48:36;;;;;;;0.90;0.50;;;;;;;15.84;71.63;101141.69;10393407;28;20044;-77
2022/07/10 17:53:40;;;;;;;1.60;0.55;;;;;;;15.96;72.26;101154.09;10422601;28;20049;-77
2022/07/10 17:58:48;;;;;;;1.00;0.77;;;;;;;14.47;79.64;101158.28;10421846;28;20063;-82
2022/07/10 18:03:51;;;;;;;3.45;1.45;;;;;;;14.29;82.98;101166.06;10416025;28;20057;-78
2022/07/10 18:08:56;;;;;;;2.35;1.30;;;;;;;14.70;83.26;101161.69;10404797;28;20107;-79
2022/07/10 18:13:59;;;;;;;2.60;1.17;;;;;;;14.73;83.64;101156.91;10404532;28;20045;-80
2022/07/10 18:19:02;;;;;;;2.10;1.65;;;;;;;14.57;84.07;101161.94;10410453;28;20048;-79
2022/07/10 18:24:07;;;;;;;2.83;1.30;;;;;;;14.80;83.12;101149.09;10410691;28;20045;-78
2022/07/10 18:29:10;;;;;;;3.85;1.38;;;;;;;14.96;82.79;101149.47;10426181;28;20454;-81
2022/07/10 18:34:29;;;;;;;1.65;1.10;;;;;;;14.74;82.84;101147.78;10408697;28;20056;-79
2022/07/10 18:39:34;;;;;;;1.42;0.90;;;;;;;14.76;82.22;101148.53;10409550;28;20050;-81
2022/07/10 18:44:37;;;;;;;1.10;1.00;;;;;;;14.35;83.71;101149.34;10419365;28;20083;-79
2022/07/10 18:49:40;;;;;;;2.85;1.10;;;;;;;14.68;82.37;101159.16;10406629;28;20122;-79
2022/07/10 18:54:44;;;;;;;0.95;0.82;;;;;;;14.96;81.91;101151.34;10416776;28;20056;-79
2022/07/10 18:59:47;;;;;;;0.77;0.77;;;;;;;14.78;81.93;101151.97;10399573;28;20053;-78
2022/07/10 19:04:50;;;;;;;1.00;0.90;;;;;;;14.45;82.52;101155.69;10410842;28;20476;-80
2022/07/10 19:09:55;;;;;;;2.15;1.25;;;;;;;14.78;81.71;101159.19;10429359;28;20048;-80
2022/07/10 19:14:58;;;;;;;1.83;1.15;;;;;;;14.94;81.27;101145.19;10444093;28;20042;-79
2022/07/10 19:20:00;;;;;;;2.88;1.05;;;;;;;14.76;80.38;101153.09;10440968;28;20055;-80
2022/07/10 19:25:05;;;;;;;2.13;0.80;;;;;;;14.96;80.16;101163.00;10409453;28;20045;-80
2022/07/10 19:30:12;;;;;;;2.30;1.30;;;;;;;14.91;80.06;101161.69;10429788;28;20049;-80
2022/07/10 19:35:15;;;;;;;2.08;1.20;;;;;;;14.98;79.69;101162.88;10436835;28;20056;-80
2022/07/10 19:40:20;;;;;;;2.40;0.68;;;;;;;14.52;80.73;101170.41;10431713;28;20084;-80
2022/07/10 19:45:23;;;;;;;3.42;0.90;;;;;;;14.82;80.36;101168.78;10433565;28;20065;-80
2022/07/10 19:50:27;;;;;;;3.08;1.02;;;;;;;14.98;81.20;101179.97;10412424;28;20131;-79
2022/07/10 19:55:31;;;;;;;1.60;0.90;;;;;;;14.97;80.85;101175.53;10409071;28;20664;-81
2022/07/10 20:00:34;;;;;;;3.58;1.40;;;;;;;14.87;80.42;101179.19;10423483;28;20044;-78
2022/07/10 20:05:37;;;;;;;1.50;1.40;;;;;;;14.87;80.23;101185.47;10420742;28;20053;-78
2022/07/10 20:10:41;;;;;;;1.50;0.85;;;;;;;14.85;80.28;101187.44;10420819;28;20052;-80
2022/07/10 20:15:44;;;;;;;2.78;1.10;;;;;;;14.44;80.08;101189.13;10415085;28;20045;-81
2022/07/10 20:21:07;;;;;;;4.72;1.50;;;;;;;14.58;79.94;101188.81;10419479;28;20055;-79
2022/07/10 20:26:11;;;;;;;4.15;2.05;;;;;;;14.30;80.83;101190.28;10425814;28;20055;-80
2022/07/10 20:31:14;;;;;;;3.83;1.73;;;;;;;14.41;80.00;101181.28;10416639;28;20049;-78
2022/07/10 20:41:40;;;;;;;2.53;1.48;;;;;;;14.79;80.30;101179.84;10396256;28;20096;-76
2022/07/10 20:46:43;;;;;;;4.10;1.52;;;;;;;14.56;79.88;101184.53;10400286;28;20046;-78
2022/07/10 20:51:46;;;;;;;2.53;1.50;;;;;;;14.54;79.60;101175.72;10411718;28;20137;-80
2022/07/10 20:56:50;;;;;;;3.35;1.77;;;;;;;14.63;80.13;101177.59;10407122;28;20048;-78
2022/07/10 21:01:53;;;;;;;3.58;2.08;;;;;;;14.26;81.21;101169.03;10410876;28;20052;-78
2022/07/10 21:06:56;;;;;;;3.90;2.05;;;;;;;14.25;80.89;101176.28;10417774;28;20053;-80
2022/07/10 21:12:00;;;;;;;4.35;1.63;;;;;;;14.53;80.44;101182.09;10425686;28;20040;-78
2022/07/10 21:17:04;;;;;;;2.85;2.00;;;;;;;14.62;79.98;101184.03;10428512;28;20055;-79
2022/07/10 21:22:06;;;;;;;3.20;1.67;;;;;;;14.59;80.01;101181.59;10417792;28;20049;-81
2022/07/10 21:27:11;;;;;;;3.63;2.05;;;;;;;14.62;79.62;101185.84;10400957;28;20495;-81
2022/07/10 21:32:14;;;;;;;4.03;2.50;;;;;;;14.64;79.03;101182.00;10381503;28;20075;-80
2022/07/10 21:37:19;;;;;;;5.88;1.70;;;;;;;14.53;78.62;101184.78;10390994;28;20049;-81
2022/07/10 21:42:23;;;;;;;4.65;2.60;;;;;;;14.58;78.98;101188.81;10404735;28;20059;-80
2022/07/10 21:47:26;;;;;;;4.95;2.03;;;;;;;14.52;78.58;101185.78;10430998;28;20037;-79
2022/07/10 21:52:29;;;;;;;3.80;2.13;;;;;;;14.47;78.67;101185.31;10432561;28;20128;-80
2022/07/10 21:57:35;;;;;;;4.07;1.80;;;;;;;14.21;79.07;101182.09;10410166;28;20048;-81
2022/07/10 22:02:38;;;;;;;4.18;2.47;;;;;;;14.33;79.72;101178.34;10394619;28;20052;-80
2022/07/10 22:07:41;;;;;;;7.28;2.30;;;;;;;14.36;79.25;101178.09;10404950;28;20422;-81
2022/07/10 22:12:45;;;;;;;4.45;2.50;;;;;;;14.57;79.70;101172.75;10405170;28;20050;-81
2022/07/10 22:17:48;;;;;;;5.32;2.50;;;;;;;14.43;79.92;101179.31;10400603;28;20192;-81
2022/07/10 22:22:51;;;;;;;4.13;2.40;;;;;;;14.36;79.94;101172.69;10400874;28;20499;-80
2022/07/10 22:27:55;;;;;;;7.05;3.03;;;;;;;14.44;79.57;101175.63;10386063;28;20058;-79
2022/07/10 22:32:58;;;;;;;6.20;2.63;;;;;;;14.36;80.01;101172.69;10402381;28;20052;-80
2022/07/10 22:38:01;;;;;;;3.78;2.60;;;;;;;14.30;80.17;101174.06;10404151;28;21207;-79
2022/07/10 22:43:06;;;;;;;5.68;2.72;;;;;;;14.48;80.04;101181.63;10390613;28;20092;-79
2022/07/10 22:48:09;;;;;;;7.15;3.17;;;;;;;14.38;80.25;101179.69;10388304;28;20045;-78
2022/07/10 22:53:12;;;;;;;11.60;3.10;;;;;;;14.22;80.82;101176.53;10398943;28;20084;-79
2022/07/10 22:58:16;;;;;;;6.28;3.30;;;;;;;14.03;82.09;101179.06;10403851;28;20054;-80
2022/07/10 23:03:20;;;;;;;7.70;3.53;;;;;;;14.23;81.58;101172.00;10401821;28;20147;-78
2022/07/10 23:08:23;;;;;;;8.05;4.10;;;;;;;14.02;81.55;101171.97;10398532;28;20050;-80
2022/07/10 23:13:27;;;;;;;6.60;3.95;;;;;;;13.81;83.16;101172.75;10404186;28;20045;-78
2022/07/10 23:18:30;;;;;;;12.43;5.15;;;;;;;14.05;82.72;101171.69;10401707;28;20215;-79
2022/07/10 23:23:39;;;;;;;8.77;4.10;;;;;;;13.87;83.32;101169.53;10392829;28;20057;-79
2022/07/10 23:28:44;;;;;;;10.35;4.35;;;;;;;13.99;83.28;101164.09;10410710;28;20088;-80
2022/07/10 23:33:47;;;;;;;9.27;5.32;;;;;;;13.82;83.87;101152.88;10403095;28;20057;-80
2022/07/10 23:38:50;;;;;;;10.18;4.45;;;;;;;13.79;83.77;101153.09;10405450;28;20573;-79